sensor_id;sensor_type;location;lat;lon;timestamp;P1;durP1;ratioP1;P2;durP2;ratioP2
23362;SDS011;11853;48.080;11.960;2023-07-29T00:00:38;2.58;;;2.28;;
23362;SDS011;11853;48.080;11.960;2023-07-29T00:03:04;3.13;;;2.83;;
23362;SDS011;11853;48.080;11.960;2023-07-29T00:05:30;3.13;;;2.67;;
23362;SDS011;11853;48.080;11.960;2023-07-29T00:07:56;3.63;;;2.78;;
23362;SDS011;11853;48.080;11.960;2023-07-29T00:10:22;4.28;;;2.45;;
23362;SDS011;11853;48.080;11.960;2023-07-29T00:12:48;3.03;;;2.78;;
23362;SDS011;11853;48.080;11.960;2023-07-29T00:15:13;3.47;;;2.53;;
23362;SDS011;11853;48.080;11.960;2023-07-29T00:17:39;3.42;;;2.60;;
23362;SDS011;11853;48.080;11.960;2023-07-29T00:20:06;3.13;;;2.85;;
23362;SDS011;11853;48.080;11.960;2023-07-29T00:22:32;3.40;;;2.63;;
23362;SDS011;11853;48.080;11.960;2023-07-29T00:24:58;2.70;;;2.50;;
23362;SDS011;11853;48.080;11.960;2023-07-29T00:27:24;3.05;;;2.83;;
23362;SDS011;11853;48.080;11.960;2023-07-29T00:29:51;3.25;;;2.50;;
23362;SDS011;11853;48.080;11.960;2023-07-29T00:32:17;2.63;;;2.42;;
23362;SDS011;11853;48.080;11.960;2023-07-29T00:34:42;4.00;;;2.78;;
23362;SDS011;11853;48.080;11.960;2023-07-29T00:37:08;2.50;;;2.30;;
23362;SDS011;11853;48.080;11.960;2023-07-29T00:39:34;2.45;;;2.25;;
23362;SDS011;11853;48.080;11.960;2023-07-29T00:41:59;2.90;;;2.70;;
23362;SDS011;11853;48.080;11.960;2023-07-29T00:44:25;2.50;;;2.25;;
23362;SDS011;11853;48.080;11.960;2023-07-29T00:46:51;2.53;;;2.33;;
23362;SDS011;11853;48.080;11.960;2023-07-29T00:49:18;2.65;;;2.45;;
23362;SDS011;11853;48.080;11.960;2023-07-29T00:51:45;2.92;;;2.63;;
23362;SDS011;11853;48.080;11.960;2023-07-29T00:54:10;2.67;;;2.47;;
23362;SDS011;11853;48.080;11.960;2023-07-29T00:56:36;2.75;;;2.55;;
23362;SDS011;11853;48.080;11.960;2023-07-29T00:59:03;2.95;;;2.55;;
23362;SDS011;11853;48.080;11.960;2023-07-29T01:01:29;2.75;;;2.55;;
23362;SDS011;11853;48.080;11.960;2023-07-29T01:03:56;3.70;;;3.00;;
23362;SDS011;11853;48.080;11.960;2023-07-29T01:12:47;3.38;;;2.90;;
23362;SDS011;11853;48.080;11.960;2023-07-29T01:17:56;3.15;;;2.95;;
23362;SDS011;11853;48.080;11.960;2023-07-29T01:20:29;2.88;;;2.67;;
23362;SDS011;11853;48.080;11.960;2023-07-29T01:22:59;2.78;;;2.58;;
23362;SDS011;11853;48.080;11.960;2023-07-29T01:25:24;3.70;;;2.72;;
23362;SDS011;11853;48.080;11.960;2023-07-29T01:27:51;3.97;;;2.88;;
23362;SDS011;11853;48.080;11.960;2023-07-29T01:30:18;3.78;;;3.00;;
23362;SDS011;11853;48.080;11.960;2023-07-29T01:32:52;3.28;;;2.70;;
23362;SDS011;11853;48.080;11.960;2023-07-29T01:35:28;3.10;;;2.80;;
23362;SDS011;11853;48.080;11.960;2023-07-29T01:38:03;3.20;;;3.00;;
23362;SDS011;11853;48.080;11.960;2023-07-29T01:40:38;2.75;;;2.50;;
23362;SDS011;11853;48.080;11.960;2023-07-29T01:43:07;3.63;;;2.58;;
23362;SDS011;11853;48.080;11.960;2023-07-29T01:45:33;2.90;;;2.42;;
23362;SDS011;11853;48.080;11.960;2023-07-29T01:48:07;2.90;;;2.50;;
23362;SDS011;11853;48.080;11.960;2023-07-29T01:50:33;4.18;;;2.67;;
23362;SDS011;11853;48.080;11.960;2023-07-29T01:52:59;3.10;;;2.78;;
23362;SDS011;11853;48.080;11.960;2023-07-29T01:55:26;3.67;;;2.97;;
23362;SDS011;11853;48.080;11.960;2023-07-29T01:57:51;2.45;;;2.25;;
23362;SDS011;11853;48.080;11.960;2023-07-29T02:00:20;2.63;;;2.28;;
23362;SDS011;11853;48.080;11.960;2023-07-29T02:02:46;4.15;;;2.15;;
23362;SDS011;11853;48.080;11.960;2023-07-29T02:05:12;3.05;;;2.47;;
23362;SDS011;11853;48.080;11.960;2023-07-29T02:07:38;2.72;;;2.45;;
23362;SDS011;11853;48.080;11.960;2023-07-29T02:10:03;4.07;;;2.60;;
23362;SDS011;11853;48.080;11.960;2023-07-29T02:12:29;4.93;;;2.80;;
23362;SDS011;11853;48.080;11.960;2023-07-29T02:14:55;3.75;;;2.33;;
23362;SDS011;11853;48.080;11.960;2023-07-29T02:17:20;2.85;;;2.55;;
23362;SDS011;11853;48.080;11.960;2023-07-29T02:19:46;2.72;;;2.30;;
23362;SDS011;11853;48.080;11.960;2023-07-29T02:22:16;2.45;;;2.28;;
23362;SDS011;11853;48.080;11.960;2023-07-29T02:24:42;3.55;;;2.80;;
23362;SDS011;11853;48.080;11.960;2023-07-29T02:27:08;3.40;;;2.80;;
23362;SDS011;11853;48.080;11.960;2023-07-29T02:29:34;3.70;;;2.70;;
23362;SDS011;11853;48.080;11.960;2023-07-29T02:32:00;3.20;;;2.90;;
23362;SDS011;11853;48.080;11.960;2023-07-29T02:34:26;2.78;;;2.58;;
23362;SDS011;11853;48.080;11.960;2023-07-29T02:36:52;2.90;;;2.70;;
23362;SDS011;11853;48.080;11.960;2023-07-29T02:39:17;4.65;;;2.83;;
23362;SDS011;11853;48.080;11.960;2023-07-29T02:41:43;3.17;;;2.63;;
23362;SDS011;11853;48.080;11.960;2023-07-29T02:44:09;2.88;;;2.67;;
23362;SDS011;11853;48.080;11.960;2023-07-29T02:46:35;3.40;;;2.55;;
23362;SDS011;11853;48.080;11.960;2023-07-29T02:49:01;2.97;;;2.67;;
23362;SDS011;11853;48.080;11.960;2023-07-29T02:51:28;3.47;;;3.10;;
23362;SDS011;11853;48.080;11.960;2023-07-29T02:53:54;3.05;;;2.72;;
23362;SDS011;11853;48.080;11.960;2023-07-29T02:56:20;3.92;;;2.50;;
23362;SDS011;11853;48.080;11.960;2023-07-29T02:58:45;3.10;;;2.90;;
23362;SDS011;11853;48.080;11.960;2023-07-29T03:01:11;2.70;;;2.50;;
23362;SDS011;11853;48.080;11.960;2023-07-29T03:03:37;3.50;;;3.20;;
23362;SDS011;11853;48.080;11.960;2023-07-29T03:06:03;3.50;;;3.00;;
23362;SDS011;11853;48.080;11.960;2023-07-29T03:08:30;4.10;;;3.20;;
23362;SDS011;11853;48.080;11.960;2023-07-29T03:14:02;4.68;;;3.17;;
23362;SDS011;11853;48.080;11.960;2023-07-29T03:16:28;3.22;;;2.95;;
23362;SDS011;11853;48.080;11.960;2023-07-29T03:18:53;4.88;;;3.08;;
23362;SDS011;11853;48.080;11.960;2023-07-29T03:21:19;4.70;;;3.08;;
23362;SDS011;11853;48.080;11.960;2023-07-29T03:23:45;3.88;;;2.60;;
23362;SDS011;11853;48.080;11.960;2023-07-29T03:26:11;3.25;;;2.78;;
23362;SDS011;11853;48.080;11.960;2023-07-29T03:28:38;3.38;;;3.08;;
23362;SDS011;11853;48.080;11.960;2023-07-29T03:31:05;4.00;;;2.72;;
23362;SDS011;11853;48.080;11.960;2023-07-29T03:33:31;3.65;;;3.20;;
23362;SDS011;11853;48.080;11.960;2023-07-29T03:35:57;3.45;;;3.13;;
23362;SDS011;11853;48.080;11.960;2023-07-29T03:38:22;3.95;;;3.00;;
23362;SDS011;11853;48.080;11.960;2023-07-29T03:40:48;3.75;;;3.00;;
23362;SDS011;11853;48.080;11.960;2023-07-29T03:43:14;3.28;;;2.97;;
23362;SDS011;11853;48.080;11.960;2023-07-29T03:45:40;3.00;;;2.80;;
23362;SDS011;11853;48.080;11.960;2023-07-29T03:48:06;4.03;;;3.40;;
23362;SDS011;11853;48.080;11.960;2023-07-29T03:50:33;5.03;;;3.60;;
23362;SDS011;11853;48.080;11.960;2023-07-29T03:53:01;5.20;;;3.83;;
23362;SDS011;11853;48.080;11.960;2023-07-29T03:55:27;3.70;;;3.40;;
23362;SDS011;11853;48.080;11.960;2023-07-29T03:57:59;4.18;;;3.65;;
23362;SDS011;11853;48.080;11.960;2023-07-29T04:00:26;4.68;;;3.35;;
23362;SDS011;11853;48.080;11.960;2023-07-29T04:02:52;4.30;;;3.88;;
23362;SDS011;11853;48.080;11.960;2023-07-29T04:05:18;3.85;;;3.55;;
23362;SDS011;11853;48.080;11.960;2023-07-29T04:07:43;3.67;;;3.38;;
23362;SDS011;11853;48.080;11.960;2023-07-29T04:10:09;4.15;;;3.78;;
23362;SDS011;11853;48.080;11.960;2023-07-29T04:12:36;3.97;;;3.10;;
23362;SDS011;11853;48.080;11.960;2023-07-29T04:15:01;3.42;;;3.13;;
23362;SDS011;11853;48.080;11.960;2023-07-29T04:17:29;3.33;;;3.03;;
23362;SDS011;11853;48.080;11.960;2023-07-29T04:19:54;3.58;;;3.00;;
23362;SDS011;11853;48.080;11.960;2023-07-29T04:22:20;3.85;;;3.45;;
23362;SDS011;11853;48.080;11.960;2023-07-29T04:24:46;3.83;;;3.53;;
23362;SDS011;11853;48.080;11.960;2023-07-29T04:27:11;3.70;;;3.40;;
23362;SDS011;11853;48.080;11.960;2023-07-29T04:29:37;3.33;;;3.03;;
23362;SDS011;11853;48.080;11.960;2023-07-29T04:32:03;6.40;;;3.60;;
23362;SDS011;11853;48.080;11.960;2023-07-29T04:34:29;3.80;;;3.40;;
23362;SDS011;11853;48.080;11.960;2023-07-29T04:36:55;3.50;;;3.20;;
23362;SDS011;11853;48.080;11.960;2023-07-29T04:39:20;3.92;;;3.53;;
23362;SDS011;11853;48.080;11.960;2023-07-29T04:41:46;3.58;;;3.13;;
23362;SDS011;11853;48.080;11.960;2023-07-29T04:44:12;4.63;;;3.42;;
23362;SDS011;11853;48.080;11.960;2023-07-29T04:46:37;3.42;;;3.00;;
23362;SDS011;11853;48.080;11.960;2023-07-29T04:49:04;4.47;;;3.65;;
23362;SDS011;11853;48.080;11.960;2023-07-29T04:51:29;3.85;;;3.22;;
23362;SDS011;11853;48.080;11.960;2023-07-29T04:53:56;3.50;;;3.08;;
23362;SDS011;11853;48.080;11.960;2023-07-29T04:56:22;3.95;;;2.95;;
23362;SDS011;11853;48.080;11.960;2023-07-29T04:58:48;3.60;;;3.30;;
23362;SDS011;11853;48.080;11.960;2023-07-29T05:01:14;4.07;;;3.05;;
23362;SDS011;11853;48.080;11.960;2023-07-29T05:03:39;3.50;;;3.20;;
23362;SDS011;11853;48.080;11.960;2023-07-29T05:06:05;3.20;;;2.90;;
23362;SDS011;11853;48.080;11.960;2023-07-29T05:08:31;4.43;;;3.20;;
23362;SDS011;11853;48.080;11.960;2023-07-29T05:10:56;2.50;;;2.30;;
23362;SDS011;11853;48.080;11.960;2023-07-29T05:13:22;2.80;;;2.35;;
23362;SDS011;11853;48.080;11.960;2023-07-29T05:15:48;3.15;;;2.63;;
23362;SDS011;11853;48.080;11.960;2023-07-29T05:18:15;2.58;;;2.38;;
23362;SDS011;11853;48.080;11.960;2023-07-29T05:20:41;3.13;;;2.60;;
23362;SDS011;11853;48.080;11.960;2023-07-29T05:23:07;3.50;;;2.38;;
23362;SDS011;11853;48.080;11.960;2023-07-29T05:25:33;3.13;;;2.70;;
23362;SDS011;11853;48.080;11.960;2023-07-29T05:28:00;2.97;;;2.65;;
23362;SDS011;11853;48.080;11.960;2023-07-29T05:30:26;2.83;;;2.60;;
23362;SDS011;11853;48.080;11.960;2023-07-29T05:32:56;4.40;;;2.80;;
23362;SDS011;11853;48.080;11.960;2023-07-29T05:35:22;2.97;;;2.60;;
23362;SDS011;11853;48.080;11.960;2023-07-29T05:37:48;3.97;;;3.20;;
23362;SDS011;11853;48.080;11.960;2023-07-29T05:40:13;2.92;;;2.67;;
23362;SDS011;11853;48.080;11.960;2023-07-29T05:42:39;2.97;;;2.67;;
23362;SDS011;11853;48.080;11.960;2023-07-29T05:45:05;3.05;;;2.60;;
23362;SDS011;11853;48.080;11.960;2023-07-29T05:47:31;3.92;;;2.80;;
23362;SDS011;11853;48.080;11.960;2023-07-29T05:49:57;3.08;;;2.63;;
23362;SDS011;11853;48.080;11.960;2023-07-29T05:52:22;5.40;;;2.72;;
23362;SDS011;11853;48.080;11.960;2023-07-29T05:54:48;3.85;;;2.53;;
23362;SDS011;11853;48.080;11.960;2023-07-29T05:57:14;3.15;;;2.47;;
23362;SDS011;11853;48.080;11.960;2023-07-29T05:59:39;2.75;;;2.40;;
23362;SDS011;11853;48.080;11.960;2023-07-29T06:02:05;3.13;;;2.60;;
23362;SDS011;11853;48.080;11.960;2023-07-29T06:04:31;3.15;;;2.60;;
23362;SDS011;11853;48.080;11.960;2023-07-29T06:06:57;2.50;;;2.28;;
23362;SDS011;11853;48.080;11.960;2023-07-29T06:09:22;3.35;;;2.50;;
23362;SDS011;11853;48.080;11.960;2023-07-29T06:11:48;2.47;;;2.28;;
23362;SDS011;11853;48.080;11.960;2023-07-29T06:14:14;4.53;;;2.97;;
23362;SDS011;11853;48.080;11.960;2023-07-29T06:16:40;3.15;;;2.85;;
23362;SDS011;11853;48.080;11.960;2023-07-29T06:19:05;2.90;;;2.70;;
23362;SDS011;11853;48.080;11.960;2023-07-29T06:21:33;3.45;;;2.85;;
23362;SDS011;11853;48.080;11.960;2023-07-29T06:23:59;2.83;;;2.50;;
23362;SDS011;11853;48.080;11.960;2023-07-29T06:26:25;3.00;;;2.80;;
23362;SDS011;11853;48.080;11.960;2023-07-29T06:28:51;3.08;;;2.75;;
23362;SDS011;11853;48.080;11.960;2023-07-29T06:31:18;2.58;;;2.35;;
23362;SDS011;11853;48.080;11.960;2023-07-29T06:33:43;3.90;;;2.42;;
23362;SDS011;11853;48.080;11.960;2023-07-29T06:36:09;2.53;;;2.33;;
23362;SDS011;11853;48.080;11.960;2023-07-29T06:38:34;2.75;;;2.47;;
23362;SDS011;11853;48.080;11.960;2023-07-29T06:41:00;4.55;;;2.58;;
23362;SDS011;11853;48.080;11.960;2023-07-29T06:43:26;3.47;;;3.10;;
23362;SDS011;11853;48.080;11.960;2023-07-29T06:45:51;3.40;;;3.10;;
23362;SDS011;11853;48.080;11.960;2023-07-29T06:48:17;4.70;;;3.22;;
23362;SDS011;11853;48.080;11.960;2023-07-29T06:50:44;3.30;;;3.00;;
23362;SDS011;11853;48.080;11.960;2023-07-29T06:53:09;3.30;;;3.00;;
23362;SDS011;11853;48.080;11.960;2023-07-29T06:55:36;5.30;;;3.25;;
23362;SDS011;11853;48.080;11.960;2023-07-29T06:58:01;3.53;;;2.80;;
23362;SDS011;11853;48.080;11.960;2023-07-29T07:00:27;3.20;;;2.90;;
23362;SDS011;11853;48.080;11.960;2023-07-29T07:02:53;4.03;;;2.60;;
23362;SDS011;11853;48.080;11.960;2023-07-29T07:05:18;3.05;;;2.75;;
23362;SDS011;11853;48.080;11.960;2023-07-29T07:07:52;2.78;;;2.58;;
23362;SDS011;11853;48.080;11.960;2023-07-29T07:10:18;3.85;;;2.95;;
23362;SDS011;11853;48.080;11.960;2023-07-29T07:12:47;2.95;;;2.70;;
23362;SDS011;11853;48.080;11.960;2023-07-29T07:15:13;3.03;;;2.63;;
23362;SDS011;11853;48.080;11.960;2023-07-29T07:17:38;4.65;;;3.08;;
23362;SDS011;11853;48.080;11.960;2023-07-29T07:20:04;4.13;;;3.08;;
23362;SDS011;11853;48.080;11.960;2023-07-29T07:22:31;3.63;;;2.70;;
23362;SDS011;11853;48.080;11.960;2023-07-29T07:24:56;3.53;;;2.70;;
23362;SDS011;11853;48.080;11.960;2023-07-29T07:27:22;3.50;;;2.42;;
23362;SDS011;11853;48.080;11.960;2023-07-29T07:29:48;4.53;;;2.47;;
23362;SDS011;11853;48.080;11.960;2023-07-29T07:32:14;2.92;;;2.65;;
23362;SDS011;11853;48.080;11.960;2023-07-29T07:34:39;2.80;;;2.50;;
23362;SDS011;11853;48.080;11.960;2023-07-29T07:37:05;3.05;;;2.25;;
23362;SDS011;11853;48.080;11.960;2023-07-29T07:39:31;2.42;;;2.22;;
23362;SDS011;11853;48.080;11.960;2023-07-29T07:42:02;3.15;;;2.38;;
23362;SDS011;11853;48.080;11.960;2023-07-29T07:44:36;2.17;;;1.98;;
23362;SDS011;11853;48.080;11.960;2023-07-29T07:47:02;2.75;;;2.55;;
23362;SDS011;11853;48.080;11.960;2023-07-29T07:49:28;2.65;;;2.30;;
23362;SDS011;11853;48.080;11.960;2023-07-29T07:51:54;2.45;;;2.30;;
23362;SDS011;11853;48.080;11.960;2023-07-29T07:54:19;2.58;;;2.33;;
23362;SDS011;11853;48.080;11.960;2023-07-29T07:56:45;3.33;;;2.42;;
23362;SDS011;11853;48.080;11.960;2023-07-29T07:59:11;3.22;;;2.58;;
23362;SDS011;11853;48.080;11.960;2023-07-29T08:01:39;2.45;;;2.25;;
23362;SDS011;11853;48.080;11.960;2023-07-29T08:04:05;3.03;;;2.72;;
23362;SDS011;11853;48.080;11.960;2023-07-29T08:06:31;2.78;;;2.50;;
23362;SDS011;11853;48.080;11.960;2023-07-29T08:08:57;4.38;;;3.38;;
23362;SDS011;11853;48.080;11.960;2023-07-29T08:11:23;5.22;;;4.63;;
23362;SDS011;11853;48.080;11.960;2023-07-29T08:13:48;4.95;;;2.90;;
23362;SDS011;11853;48.080;11.960;2023-07-29T08:16:14;3.17;;;2.88;;
23362;SDS011;11853;48.080;11.960;2023-07-29T08:18:40;2.88;;;2.65;;
23362;SDS011;11853;48.080;11.960;2023-07-29T08:21:06;3.08;;;2.63;;
23362;SDS011;11853;48.080;11.960;2023-07-29T08:23:32;2.70;;;2.50;;
23362;SDS011;11853;48.080;11.960;2023-07-29T08:25:59;2.85;;;2.65;;
23362;SDS011;11853;48.080;11.960;2023-07-29T08:28:27;2.58;;;2.38;;
23362;SDS011;11853;48.080;11.960;2023-07-29T08:30:56;3.22;;;2.95;;
23362;SDS011;11853;48.080;11.960;2023-07-29T08:33:22;3.33;;;2.80;;
23362;SDS011;11853;48.080;11.960;2023-07-29T08:35:48;3.38;;;3.08;;
23362;SDS011;11853;48.080;11.960;2023-07-29T08:38:14;4.43;;;3.17;;
23362;SDS011;11853;48.080;11.960;2023-07-29T08:40:42;3.15;;;2.85;;
23362;SDS011;11853;48.080;11.960;2023-07-29T08:43:11;3.33;;;3.03;;
23362;SDS011;11853;48.080;11.960;2023-07-29T08:45:39;4.15;;;3.30;;
23362;SDS011;11853;48.080;11.960;2023-07-29T08:48:07;3.40;;;3.10;;
23362;SDS011;11853;48.080;11.960;2023-07-29T08:50:35;3.03;;;2.83;;
23362;SDS011;11853;48.080;11.960;2023-07-29T08:53:03;4.20;;;3.10;;
23362;SDS011;11853;48.080;11.960;2023-07-29T08:55:29;3.22;;;2.92;;
23362;SDS011;11853;48.080;11.960;2023-07-29T08:57:56;3.78;;;3.33;;
23362;SDS011;11853;48.080;11.960;2023-07-29T09:00:23;3.65;;;3.35;;
23362;SDS011;11853;48.080;11.960;2023-07-29T09:02:50;4.50;;;3.00;;
23362;SDS011;11853;48.080;11.960;2023-07-29T09:05:16;3.38;;;3.08;;
23362;SDS011;11853;48.080;11.960;2023-07-29T09:07:42;3.58;;;3.15;;
23362;SDS011;11853;48.080;11.960;2023-07-29T09:10:10;3.00;;;2.80;;
23362;SDS011;11853;48.080;11.960;2023-07-29T09:12:36;4.38;;;3.17;;
23362;SDS011;11853;48.080;11.960;2023-07-29T09:15:02;4.30;;;3.63;;
23362;SDS011;11853;48.080;11.960;2023-07-29T09:17:31;4.90;;;3.13;;
23362;SDS011;11853;48.080;11.960;2023-07-29T09:19:58;3.53;;;3.28;;
23362;SDS011;11853;48.080;11.960;2023-07-29T09:22:24;3.53;;;3.17;;
23362;SDS011;11853;48.080;11.960;2023-07-29T09:24:52;3.50;;;3.20;;
23362;SDS011;11853;48.080;11.960;2023-07-29T09:27:27;3.47;;;3.17;;
23362;SDS011;11853;48.080;11.960;2023-07-29T09:29:57;4.95;;;3.58;;
23362;SDS011;11853;48.080;11.960;2023-07-29T09:32:24;3.53;;;2.92;;
23362;SDS011;11853;48.080;11.960;2023-07-29T09:34:50;4.20;;;3.20;;
23362;SDS011;11853;48.080;11.960;2023-07-29T09:37:25;4.88;;;3.40;;
23362;SDS011;11853;48.080;11.960;2023-07-29T09:39:52;4.03;;;3.63;;
23362;SDS011;11853;48.080;11.960;2023-07-29T09:42:21;4.57;;;3.40;;
23362;SDS011;11853;48.080;11.960;2023-07-29T09:44:49;3.63;;;3.33;;
23362;SDS011;11853;48.080;11.960;2023-07-29T09:47:19;3.90;;;3.53;;
23362;SDS011;11853;48.080;11.960;2023-07-29T09:49:49;3.83;;;3.50;;
23362;SDS011;11853;48.080;11.960;2023-07-29T09:52:18;3.90;;;3.50;;
23362;SDS011;11853;48.080;11.960;2023-07-29T09:54:46;5.80;;;3.78;;
23362;SDS011;11853;48.080;11.960;2023-07-29T09:57:16;3.25;;;2.92;;
23362;SDS011;11853;48.080;11.960;2023-07-29T09:59:43;3.83;;;3.53;;
23362;SDS011;11853;48.080;11.960;2023-07-29T10:02:18;4.50;;;3.38;;
23362;SDS011;11853;48.080;11.960;2023-07-29T10:04:46;4.32;;;3.33;;
23362;SDS011;11853;48.080;11.960;2023-07-29T10:07:12;4.18;;;3.58;;
23362;SDS011;11853;48.080;11.960;2023-07-29T10:09:39;3.75;;;3.38;;
23362;SDS011;11853;48.080;11.960;2023-07-29T10:12:05;3.85;;;3.45;;
23362;SDS011;11853;48.080;11.960;2023-07-29T10:14:32;4.20;;;3.50;;
23362;SDS011;11853;48.080;11.960;2023-07-29T10:16:58;3.72;;;3.33;;
23362;SDS011;11853;48.080;11.960;2023-07-29T10:19:25;3.78;;;3.47;;
23362;SDS011;11853;48.080;11.960;2023-07-29T10:21:51;3.30;;;3.05;;
23362;SDS011;11853;48.080;11.960;2023-07-29T10:24:22;4.63;;;3.58;;
23362;SDS011;11853;48.080;11.960;2023-07-29T10:26:56;3.90;;;3.40;;
23362;SDS011;11853;48.080;11.960;2023-07-29T10:29:24;3.75;;;3.40;;
23362;SDS011;11853;48.080;11.960;2023-07-29T10:31:53;3.92;;;3.63;;
23362;SDS011;11853;48.080;11.960;2023-07-29T10:34:22;3.95;;;3.58;;
23362;SDS011;11853;48.080;11.960;2023-07-29T10:36:49;5.97;;;3.85;;
23362;SDS011;11853;48.080;11.960;2023-07-29T10:39:16;3.65;;;3.35;;
23362;SDS011;11853;48.080;11.960;2023-07-29T10:42:15;5.10;;;3.45;;
23362;SDS011;11853;48.080;11.960;2023-07-29T10:47:13;3.80;;;3.50;;
23362;SDS011;11853;48.080;11.960;2023-07-29T10:49:42;6.28;;;3.95;;
23362;SDS011;11853;48.080;11.960;2023-07-29T10:52:12;3.63;;;3.33;;
23362;SDS011;11853;48.080;11.960;2023-07-29T10:57:12;4.05;;;3.30;;
23362;SDS011;11853;48.080;11.960;2023-07-29T10:59:40;3.60;;;3.30;;
23362;SDS011;11853;48.080;11.960;2023-07-29T11:02:12;3.80;;;3.50;;
23362;SDS011;11853;48.080;11.960;2023-07-29T11:04:46;2.88;;;2.55;;
23362;SDS011;11853;48.080;11.960;2023-07-29T11:09:41;3.22;;;2.90;;
23362;SDS011;11853;48.080;11.960;2023-07-29T11:15:04;3.53;;;3.22;;
23362;SDS011;11853;48.080;11.960;2023-07-29T11:17:41;3.45;;;3.15;;
23362;SDS011;11853;48.080;11.960;2023-07-29T11:20:08;3.40;;;3.10;;
23362;SDS011;11853;48.080;11.960;2023-07-29T11:22:35;3.70;;;3.22;;
23362;SDS011;11853;48.080;11.960;2023-07-29T11:25:01;3.25;;;3.05;;
23362;SDS011;11853;48.080;11.960;2023-07-29T11:27:27;3.53;;;3.22;;
23362;SDS011;11853;48.080;11.960;2023-07-29T11:29:57;3.55;;;3.25;;
23362;SDS011;11853;48.080;11.960;2023-07-29T11:32:24;3.55;;;3.20;;
23362;SDS011;11853;48.080;11.960;2023-07-29T11:34:51;3.85;;;3.40;;
23362;SDS011;11853;48.080;11.960;2023-07-29T11:37:16;3.83;;;3.40;;
23362;SDS011;11853;48.080;11.960;2023-07-29T11:39:43;3.50;;;3.20;;
23362;SDS011;11853;48.080;11.960;2023-07-29T11:42:13;3.50;;;3.20;;
23362;SDS011;11853;48.080;11.960;2023-07-29T11:44:39;5.63;;;3.20;;
23362;SDS011;11853;48.080;11.960;2023-07-29T11:47:12;3.80;;;3.50;;
23362;SDS011;11853;48.080;11.960;2023-07-29T11:49:39;3.88;;;3.58;;
23362;SDS011;11853;48.080;11.960;2023-07-29T11:52:09;3.72;;;3.42;;
23362;SDS011;11853;48.080;11.960;2023-07-29T11:54:36;3.22;;;2.92;;
23362;SDS011;11853;48.080;11.960;2023-07-29T11:57:06;3.25;;;2.72;;
23362;SDS011;11853;48.080;11.960;2023-07-29T11:59:34;2.90;;;2.70;;
23362;SDS011;11853;48.080;11.960;2023-07-29T12:02:01;2.50;;;2.30;;
23362;SDS011;11853;48.080;11.960;2023-07-29T12:04:31;2.60;;;1.83;;
23362;SDS011;11853;48.080;11.960;2023-07-29T12:06:58;3.75;;;2.40;;
23362;SDS011;11853;48.080;11.960;2023-07-29T12:09:25;2.70;;;2.17;;
23362;SDS011;11853;48.080;11.960;2023-07-29T12:11:52;2.38;;;2.17;;
23362;SDS011;11853;48.080;11.960;2023-07-29T12:14:18;2.45;;;2.25;;
23362;SDS011;11853;48.080;11.960;2023-07-29T12:16:44;2.33;;;2.13;;
23362;SDS011;11853;48.080;11.960;2023-07-29T12:19:13;2.10;;;2.00;;
23362;SDS011;11853;48.080;11.960;2023-07-29T12:21:42;2.08;;;1.98;;
23362;SDS011;11853;48.080;11.960;2023-07-29T12:24:08;2.42;;;2.03;;
23362;SDS011;11853;48.080;11.960;2023-07-29T12:26:35;2.50;;;2.30;;
23362;SDS011;11853;48.080;11.960;2023-07-29T12:29:11;3.38;;;2.50;;
23362;SDS011;11853;48.080;11.960;2023-07-29T12:31:37;2.67;;;2.47;;
23362;SDS011;11853;48.080;11.960;2023-07-29T12:34:03;2.33;;;2.13;;
23362;SDS011;11853;48.080;11.960;2023-07-29T12:36:42;2.58;;;2.38;;
23362;SDS011;11853;48.080;11.960;2023-07-29T12:39:16;2.65;;;2.45;;
23362;SDS011;11853;48.080;11.960;2023-07-29T12:41:43;2.92;;;2.22;;
23362;SDS011;11853;48.080;11.960;2023-07-29T12:44:09;3.33;;;2.35;;
23362;SDS011;11853;48.080;11.960;2023-07-29T12:46:34;2.53;;;2.33;;
23362;SDS011;11853;48.080;11.960;2023-07-29T12:49:00;4.40;;;2.42;;
23362;SDS011;11853;48.080;11.960;2023-07-29T12:51:26;2.92;;;2.50;;
23362;SDS011;11853;48.080;11.960;2023-07-29T12:53:52;2.65;;;2.45;;
23362;SDS011;11853;48.080;11.960;2023-07-29T12:56:19;2.83;;;2.63;;
23362;SDS011;11853;48.080;11.960;2023-07-29T12:58:44;3.05;;;2.42;;
23362;SDS011;11853;48.080;11.960;2023-07-29T13:01:10;3.15;;;2.50;;
23362;SDS011;11853;48.080;11.960;2023-07-29T13:03:41;2.85;;;2.65;;
23362;SDS011;11853;48.080;11.960;2023-07-29T13:06:07;2.70;;;2.50;;
23362;SDS011;11853;48.080;11.960;2023-07-29T13:08:33;2.63;;;2.42;;
23362;SDS011;11853;48.080;11.960;2023-07-29T13:10:58;3.67;;;2.50;;
23362;SDS011;11853;48.080;11.960;2023-07-29T13:13:24;2.88;;;2.47;;
23362;SDS011;11853;48.080;11.960;2023-07-29T13:15:50;4.35;;;2.63;;
23362;SDS011;11853;48.080;11.960;2023-07-29T13:18:16;2.85;;;2.65;;
23362;SDS011;11853;48.080;11.960;2023-07-29T13:20:41;2.53;;;2.33;;
23362;SDS011;11853;48.080;11.960;2023-07-29T13:23:07;2.92;;;2.67;;
23362;SDS011;11853;48.080;11.960;2023-07-29T13:25:33;2.83;;;2.63;;
23362;SDS011;11853;48.080;11.960;2023-07-29T13:27:58;4.18;;;3.33;;
23362;SDS011;11853;48.080;11.960;2023-07-29T13:30:24;3.97;;;2.35;;
23362;SDS011;11853;48.080;11.960;2023-07-29T13:32:50;2.85;;;2.40;;
23362;SDS011;11853;48.080;11.960;2023-07-29T13:35:15;2.95;;;2.40;;
23362;SDS011;11853;48.080;11.960;2023-07-29T13:37:41;5.00;;;2.17;;
23362;SDS011;11853;48.080;11.960;2023-07-29T13:40:09;2.33;;;2.13;;
23362;SDS011;11853;48.080;11.960;2023-07-29T13:42:35;7.72;;;2.35;;
23362;SDS011;11853;48.080;11.960;2023-07-29T13:45:02;5.72;;;2.72;;
23362;SDS011;11853;48.080;11.960;2023-07-29T13:47:28;5.40;;;2.72;;
23362;SDS011;11853;48.080;11.960;2023-07-29T13:49:53;4.18;;;2.75;;
23362;SDS011;11853;48.080;11.960;2023-07-29T13:52:19;5.22;;;2.97;;
23362;SDS011;11853;48.080;11.960;2023-07-29T13:54:44;3.20;;;2.50;;
23362;SDS011;11853;48.080;11.960;2023-07-29T13:57:10;2.53;;;2.25;;
23362;SDS011;11853;48.080;11.960;2023-07-29T13:59:36;3.92;;;2.53;;
23362;SDS011;11853;48.080;11.960;2023-07-29T14:02:05;4.82;;;2.63;;
23362;SDS011;11853;48.080;11.960;2023-07-29T14:04:32;3.50;;;2.33;;
23362;SDS011;11853;48.080;11.960;2023-07-29T14:06:58;3.55;;;2.78;;
23362;SDS011;11853;48.080;11.960;2023-07-29T14:09:24;3.10;;;2.60;;
23362;SDS011;11853;48.080;11.960;2023-07-29T14:11:50;3.83;;;3.08;;
23362;SDS011;11853;48.080;11.960;2023-07-29T14:14:16;3.15;;;2.85;;
23362;SDS011;11853;48.080;11.960;2023-07-29T14:16:42;3.60;;;2.60;;
23362;SDS011;11853;48.080;11.960;2023-07-29T14:19:08;2.95;;;2.60;;
23362;SDS011;11853;48.080;11.960;2023-07-29T14:21:33;2.90;;;2.60;;
23362;SDS011;11853;48.080;11.960;2023-07-29T14:23:59;3.45;;;3.15;;
23362;SDS011;11853;48.080;11.960;2023-07-29T14:26:25;3.20;;;2.75;;
23362;SDS011;11853;48.080;11.960;2023-07-29T14:28:50;3.70;;;3.25;;
23362;SDS011;11853;48.080;11.960;2023-07-29T14:31:16;3.38;;;2.78;;
23362;SDS011;11853;48.080;11.960;2023-07-29T14:33:42;3.53;;;2.80;;
23362;SDS011;11853;48.080;11.960;2023-07-29T14:36:08;3.45;;;2.88;;
23362;SDS011;11853;48.080;11.960;2023-07-29T14:38:35;3.38;;;3.00;;
23362;SDS011;11853;48.080;11.960;2023-07-29T14:41:02;3.25;;;2.83;;
23362;SDS011;11853;48.080;11.960;2023-07-29T14:43:30;3.33;;;3.03;;
23362;SDS011;11853;48.080;11.960;2023-07-29T14:45:56;3.33;;;2.80;;
23362;SDS011;11853;48.080;11.960;2023-07-29T14:48:23;3.15;;;2.90;;
23362;SDS011;11853;48.080;11.960;2023-07-29T14:50:48;3.00;;;2.70;;
23362;SDS011;11853;48.080;11.960;2023-07-29T14:53:14;3.92;;;2.78;;